Time;durP1;ratioP1;P1;durP2;ratioP2;P2;SDS_P1;SDS_P2;PMS_P1;PMS_P2;Temp;Humidity;BMP_temperature;BMP_pressure;BME280_temperature;BME280_humidity;BME280_pressure;Samples;Min_cycle;Max_cycle;Signal;HPM_P1;HPM_P2
2024/01/15 00:02:13;;;;;;;51.97;33.13;;;6.60;90.90;;;;;;4955189;29;20031;-82
2024/01/15 00:04:39;;;;;;;60.13;35.67;;;6.60;90.90;;;;;;4955794;29;20104;-81
2024/01/15 00:07:06;;;;;;;63.08;36.95;;;6.70;91.00;;;;;;4955335;28;20517;-82
2024/01/15 00:09:32;;;;;;;56.28;35.72;;;6.70;90.90;;;;;;4955626;29;20065;-81
2024/01/15 00:11:58;;;;;;;56.90;33.30;;;6.80;90.80;;;;;;4949072;29;20447;-81
2024/01/15 00:14:24;;;;;;;68.10;42.50;;;6.80;90.60;;;;;;4953424;29;20074;-81
2024/01/15 00:16:51;;;;;;;54.15;35.13;;;6.80;90.60;;;;;;4952186;29;20069;-82
2024/01/15 00:19:17;;;;;;;54.22;35.17;;;6.80;90.60;;;;;;4951704;28;20473;-83
2024/01/15 00:21:43;;;;;;;71.28;41.83;;;6.70;90.70;;;;;;4954648;29;20386;-83
2024/01/15 00:24:08;;;;;;;51.05;33.05;;;6.60;90.70;;;;;;4955240;29;20365;-83
2024/01/15 00:26:34;;;;;;;60.58;37.65;;;6.60;91.00;;;;;;4953216;29;20487;-83
2024/01/15 00:29:00;;;;;;;60.03;36.58;;;6.60;90.80;;;;;;4954318;29;20063;-83
2024/01/15 00:31:26;;;;;;;51.03;33.42;;;6.70;90.90;;;;;;4953739;29;20054;-83
2024/01/15 00:33:52;;;;;;;54.42;34.55;;;6.70;90.80;;;;;;4945901;29;20031;-83
2024/01/15 00:36:18;;;;;;;50.85;33.63;;;6.70;90.70;;;;;;4955004;29;20058;-82
2024/01/15 00:38:44;;;;;;;51.33;32.22;;;6.80;90.70;;;;;;4954920;29;20051;-83
2024/01/15 00:41:10;;;;;;;51.25;32.67;;;6.80;90.80;;;;;;4955267;29;20127;-83
2024/01/15 00:43:35;;;;;;;55.83;35.15;;;6.80;90.70;;;;;;4955463;29;20429;-83
2024/01/15 00:46:05;;;;;;;53.25;33.42;;;6.80;90.70;;;;;;4954852;29;20035;-83
2024/01/15 00:48:31;;;;;;;52.77;32.80;;;6.90;90.70;;;;;;4934746;29;20027;-83
2024/01/15 00:50:57;;;;;;;51.80;32.65;;;6.90;90.50;;;;;;4953744;29;20386;-83
2024/01/15 00:53:23;;;;;;;49.88;32.78;;;7.00;90.40;;;;;;4954781;29;20035;-82
2024/01/15 00:55:48;;;;;;;49.20;30.20;;;7.00;90.40;;;;;;4955154;29;20481;-83
2024/01/15 00:58:14;;;;;;;51.55;32.97;;;7.00;90.20;;;;;;4954505;29;20058;-83
2024/01/15 01:00:40;;;;;;;55.28;34.08;;;7.00;90.30;;;;;;4954497;29;20478;-82
2024/01/15 01:03:06;;;;;;;51.22;32.90;;;7.00;90.20;;;;;;4954478;29;20037;-82
2024/01/15 01:05:33;;;;;;;51.90;32.78;;;7.00;90.20;;;;;;4954818;29;20373;-82
2024/01/15 01:07:59;;;;;;;55.88;33.22;;;7.10;90.30;;;;;;4953983;28;20027;-81
2024/01/15 01:10:24;;;;;;;52.50;33.47;;;7.10;90.30;;;;;;4946690;29;20378;-82
2024/01/15 01:12:50;;;;;;;50.85;31.70;;;7.10;90.30;;;;;;4954427;29;20027;-81
2024/01/15 01:15:16;;;;;;;49.78;32.15;;;7.10;90.30;;;;;;4953797;29;20030;-81
2024/01/15 01:17:42;;;;;;;45.47;29.05;;;7.10;90.30;;;;;;4952937;29;20123;-82
2024/01/15 01:20:09;;;;;;;50.70;33.63;;;7.10;90.20;;;;;;4953638;29;20031;-82
2024/01/15 01:22:35;;;;;;;51.13;30.95;;;7.10;90.20;;;;;;4954179;29;20110;-82
2024/01/15 01:25:01;;;;;;;39.63;25.88;;;7.00;90.20;;;;;;4954367;29;20086;-83
2024/01/15 01:27:26;;;;;;;70.35;42.88;;;7.00;90.30;;;;;;4953866;29;20019;-83
2024/01/15 01:29:52;;;;;;;48.67;32.17;;;6.90;90.40;;;;;;4937212;29;20019;-83
2024/01/15 01:32:18;;;;;;;42.45;27.60;;;6.80;90.50;;;;;;4956657;28;20023;-83
2024/01/15 01:34:44;;;;;;;46.47;30.17;;;6.70;90.60;;;;;;4958026;29;20066;-83
2024/01/15 01:37:13;;;;;;;54.92;34.50;;;6.70;90.70;;;;;;4958015;29;20031;-83
2024/01/15 01:39:39;;;;;;;47.55;30.75;;;6.70;90.60;;;;;;4955085;29;20055;-83
2024/01/15 01:42:05;;;;;;;51.00;30.45;;;6.70;90.70;;;;;;4957331;29;20418;-83
2024/01/15 01:44:31;;;;;;;71.30;44.70;;;6.70;90.70;;;;;;4945968;29;20501;-83
2024/01/15 01:46:58;;;;;;;37.83;26.27;;;6.70;90.80;;;;;;4958172;28;20055;-83
2024/01/15 01:49:25;;;;;;;55.33;34.08;;;6.60;90.90;;;;;;4952769;29;20378;-83
2024/01/15 01:51:51;;;;;;;53.83;34.80;;;6.60;90.90;;;;;;4958536;29;20560;-82
2024/01/15 01:54:19;;;;;;;68.10;40.00;;;6.70;91.00;;;;;;4958096;29;20463;-82
2024/01/15 01:56:47;;;;;;;44.90;29.70;;;6.70;91.00;;;;;;4958394;29;20027;-82
2024/01/15 01:59:13;;;;;;;51.22;31.38;;;6.70;91.10;;;;;;4957098;29;20047;-82
2024/01/15 02:01:39;;;;;;;53.40;31.50;;;6.70;91.10;;;;;;4957759;29;20454;-82
2024/01/15 02:04:05;;;;;;;54.55;35.80;;;6.70;91.10;;;;;;4957009;29;20489;-82
2024/01/15 02:06:31;;;;;;;46.50;30.30;;;6.70;91.30;;;;;;4958001;29;20435;-82
2024/01/15 02:08:57;;;;;;;59.42;35.25;;;6.60;91.40;;;;;;4957496;29;20055;-82
2024/01/15 02:11:22;;;;;;;53.92;34.40;;;6.60;91.40;;;;;;4957545;28;20054;-82
2024/01/15 02:13:48;;;;;;;55.22;33.42;;;6.60;91.40;;;;;;4957786;29;20038;-82
2024/01/15 02:16:14;;;;;;;78.22;46.13;;;6.60;91.50;;;;;;4957340;29;20039;-83
2024/01/15 02:18:44;;;;;;;62.28;40.20;;;6.60;91.50;;;;;;4956487;29;20525;-83
2024/01/15 02:21:10;;;;;;;58.83;37.45;;;6.60;91.50;;;;;;4958229;29;20039;-82
2024/01/15 02:23:37;;;;;;;59.65;37.08;;;6.60;91.60;;;;;;4957388;28;20089;-82
2024/01/15 02:26:03;;;;;;;61.33;38.80;;;6.60;91.60;;;;;;4951741;29;20158;-82
2024/01/15 02:28:29;;;;;;;67.28;42.08;;;6.70;91.70;;;;;;4957483;29;20031;-82
2024/01/15 02:30:55;;;;;;;53.55;33.50;;;6.70;91.50;;;;;;4957069;29;20406;-82
2024/01/15 02:33:20;;;;;;;64.25;39.33;;;6.70;91.50;;;;;;4957401;29;20106;-82
2024/01/15 02:35:46;;;;;;;61.97;37.63;;;6.60;91.60;;;;;;4957648;29;20050;-83
2024/01/15 02:38:12;;;;;;;100.28;55.80;;;6.60;91.70;;;;;;4957744;29;20027;-83
2024/01/15 02:40:38;;;;;;;53.75;33.28;;;6.40;92.00;;;;;;4956764;29;20114;-83
2024/01/15 02:43:04;;;;;;;73.93;43.40;;;6.40;92.00;;;;;;4956293;28;20457;-82
2024/01/15 02:45:30;;;;;;;60.92;39.38;;;6.40;91.90;;;;;;4956972;29;20036;-83
2024/01/15 02:47:56;;;;;;;57.35;35.45;;;6.40;91.90;;;;;;4956313;29;20038;-82
2024/01/15 02:50:21;;;;;;;60.10;35.95;;;6.40;92.00;;;;;;4957354;29;20387;-83
2024/01/15 02:52:47;;;;;;;79.22;49.67;;;6.50;91.90;;;;;;4956520;29;20106;-83
2024/01/15 02:55:13;;;;;;;65.75;40.53;;;6.40;91.90;;;;;;4956264;29;20454;-82
2024/01/15 02:57:38;;;;;;;62.10;39.80;;;6.30;92.00;;;;;;4956642;29;20046;-83
2024/01/15 03:00:05;;;;;;;87.60;52.67;;;6.30;92.00;;;;;;4954289;29;20528;-83
2024/01/15 03:02:33;;;;;;;54.60;34.60;;;6.40;92.00;;;;;;4956467;29;20031;-83
2024/01/15 03:04:59;;;;;;;68.45;44.63;;;6.40;92.10;;;;;;4947393;29;20358;-83
2024/01/15 03:07:26;;;;;;;56.45;33.83;;;6.40;92.10;;;;;;4956093;29;20028;-82
2024/01/15 03:09:52;;;;;;;62.72;40.15;;;6.30;92.20;;;;;;4956069;29;20055;-83
2024/01/15 03:12:18;;;;;;;60.30;37.33;;;6.30;92.30;;;;;;4956389;29;20548;-83
2024/01/15 03:14:43;;;;;;;57.10;37.55;;;6.30;92.20;;;;;;4956613;29;20486;-82
2024/01/15 03:17:10;;;;;;;61.22;36.50;;;6.40;92.30;;;;;;4955739;29;20071;-81
2024/01/15 03:19:35;;;;;;;74.65;45.67;;;6.40;92.30;;;;;;4939829;29;20413;-82
2024/01/15 03:22:03;;;;;;;47.90;30.40;;;6.40;92.30;;;;;;4956753;29;20042;-82
2024/01/15 03:24:29;;;;;;;54.90;34.05;;;6.30;92.30;;;;;;4956177;29;20028;-82
2024/01/15 03:26:54;;;;;;;58.75;37.70;;;6.40;92.30;;;;;;4956570;29;20031;-82
2024/01/15 03:29:21;;;;;;;64.63;38.30;;;6.40;92.30;;;;;;4956367;29;20062;-82
2024/01/15 03:31:46;;;;;;;55.58;36.15;;;6.40;92.30;;;;;;4956459;29;20042;-82
2024/01/15 03:34:12;;;;;;;54.17;34.55;;;6.40;92.20;;;;;;4955589;29;20031;-81
2024/01/15 03:36:37;;;;;;;51.45;33.08;;;6.40;92.40;;;;;;4946665;29;20031;-82
2024/01/15 03:39:03;;;;;;;55.58;35.90;;;6.40;92.20;;;;;;4956759;29;20031;-82
2024/01/15 03:41:29;;;;;;;71.10;41.90;;;6.40;92.20;;;;;;4956144;29;20043;-82
2024/01/15 03:43:54;;;;;;;59.97;37.10;;;6.40;92.20;;;;;;4956000;29;20031;-82
2024/01/15 03:46:20;;;;;;;61.20;40.40;;;6.50;92.30;;;;;;4955602;29;20035;-82
2024/01/15 03:48:46;;;;;;;54.60;34.97;;;6.50;92.20;;;;;;4955447;29;20011;-82
2024/01/15 03:51:11;;;;;;;59.05;36.47;;;6.40;92.20;;;;;;4955439;29;20079;-81
2024/01/15 03:53:38;;;;;;;50.33;34.55;;;6.50;92.20;;;;;;4955237;28;20019;-82
2024/01/15 03:56:04;;;;;;;59.65;37.15;;;6.50;92.10;;;;;;4954874;29;20109;-82
2024/01/15 03:58:30;;;;;;;60.42;38.03;;;6.50;92.10;;;;;;4955652;29;20068;-82
2024/01/15 04:00:56;;;;;;;54.08;35.08;;;6.60;92.00;;;;;;4954802;29;20562;-81
2024/01/15 04:03:21;;;;;;;56.88;36.70;;;6.60;92.00;;;;;;4955702;29;20027;-81
2024/01/15 04:05:47;;;;;;;63.70;40.70;;;6.60;92.00;;;;;;4926179;29;20038;-81
2024/01/15 04:08:13;;;;;;;56.85;32.78;;;6.60;91.90;;;;;;4955750;29;20030;-82
2024/01/15 04:10:38;;;;;;;59.88;37.20;;;6.60;91.80;;;;;;4955937;29;20053;-81
2024/01/15 04:13:04;;;;;;;60.13;37.90;;;6.60;91.90;;;;;;4955326;29;20504;-82
2024/01/15 04:15:30;;;;;;;64.30;37.78;;;6.60;91.90;;;;;;4955561;29;20058;-82
2024/01/15 04:17:55;;;;;;;50.38;32.35;;;6.60;91.90;;;;;;4954252;29;20110;-82
2024/01/15 04:20:21;;;;;;;50.00;32.63;;;6.50;92.00;;;;;;4955222;29;20101;-82
2024/01/15 04:22:46;;;;;;;52.13;34.33;;;6.40;92.00;;;;;;4955149;29;20042;-81
2024/01/15 04:25:12;;;;;;;56.78;34.58;;;6.40;92.00;;;;;;4955034;29;20043;-81
2024/01/15 04:27:38;;;;;;;57.83;36.63;;;6.40;92.10;;;;;;4955114;29;20035;-82
2024/01/15 04:30:04;;;;;;;55.55;35.15;;;6.40;92.10;;;;;;4954615;29;20042;-81
2024/01/15 04:32:29;;;;;;;65.90;42.33;;;6.40;92.10;;;;;;4950482;29;20478;-81
2024/01/15 04:34:55;;;;;;;45.05;29.88;;;6.30;92.30;;;;;;4948937;29;20038;-82
2024/01/15 04:37:21;;;;;;;56.65;35.35;;;6.30;92.40;;;;;;4955121;29;20023;-83
2024/01/15 04:39:46;;;;;;;59.13;35.08;;;6.30;92.40;;;;;;4955528;28;20087;-83
2024/01/15 04:42:12;;;;;;;54.15;33.47;;;6.30;92.30;;;;;;4955030;29;20475;-82
2024/01/15 04:44:38;;;;;;;48.67;31.45;;;6.40;92.30;;;;;;4954663;29;20114;-82
2024/01/15 04:47:03;;;;;;;66.78;41.28;;;6.40;92.30;;;;;;4953825;29;20382;-82
2024/01/15 04:49:29;;;;;;;65.05;40.30;;;6.30;92.20;;;;;;4953711;29;20481;-81
2024/01/15 04:51:55;;;;;;;77.10;49.85;;;6.30;92.60;;;;;;4954827;29;20441;-82
2024/01/15 04:54:21;;;;;;;78.55;47.40;;;6.20;92.30;;;;;;4955057;29;20031;-82
2024/01/15 04:56:47;;;;;;;52.40;33.83;;;6.20;92.40;;;;;;4954776;29;20127;-82
2024/01/15 04:59:14;;;;;;;54.25;35.05;;;6.20;92.30;;;;;;4954642;29;20485;-82
2024/01/15 05:01:40;;;;;;;53.45;33.38;;;6.20;92.30;;;;;;4954596;29;20035;-82
2024/01/15 05:04:05;;;;;;;49.83;31.63;;;6.20;92.30;;;;;;4954867;29;20035;-81
2024/01/15 05:06:31;;;;;;;52.30;32.47;;;6.30;92.30;;;;;;4955672;28;20027;-81
2024/01/15 05:08:57;;;;;;;50.97;32.78;;;6.30;92.40;;;;;;4958403;29;20473;-82
2024/01/15 05:11:22;;;;;;;49.63;30.00;;;6.40;92.40;;;;;;4958726;29;20027;-82
2024/01/15 05:13:48;;;;;;;46.80;31.13;;;6.40;92.20;;;;;;4958696;29;20031;-82
2024/01/15 05:16:14;;;;;;;51.03;32.10;;;6.40;92.10;;;;;;4958722;29;20043;-83
2024/01/15 05:18:39;;;;;;;45.75;28.95;;;6.40;92.00;;;;;;4958667;29;20469;-82
2024/01/15 05:21:05;;;;;;;50.70;32.13;;;6.50;92.00;;;;;;4950229;29;20034;-83
2024/01/15 05:23:34;;;;;;;48.38;31.15;;;6.50;92.00;;;;;;4958417;29;20118;-82
2024/01/15 05:26:00;;;;;;;51.25;30.40;;;6.50;91.90;;;;;;4958531;29;20031;-82
2024/01/15 05:28:25;;;;;;;44.50;29.08;;;6.50;91.90;;;;;;4958761;29;20539;-82
2024/01/15 05:30:52;;;;;;;39.42;25.58;;;6.50;91.90;;;;;;4958208;29;20115;-82
2024/01/15 05:33:17;;;;;;;46.80;28.73;;;6.40;91.80;;;;;;4958198;29;20035;-82
2024/01/15 05:35:43;;;;;;;50.85;33.20;;;6.40;91.90;;;;;;4957894;29;20035;-82
2024/01/15 05:38:09;;;;;;;43.03;28.15;;;6.40;91.90;;;;;;4933312;29;20035;-81
2024/01/15 05:40:34;;;;;;;41.97;27.27;;;6.30;91.90;;;;;;4958499;29;20102;-81
2024/01/15 05:43:00;;;;;;;49.00;30.17;;;6.30;92.00;;;;;;4957588;29;20046;-82
2024/01/15 05:45:26;;;;;;;55.10;34.53;;;6.30;92.00;;;;;;4944352;29;20036;-82
2024/01/15 05:47:52;;;;;;;43.17;28.42;;;6.40;92.00;;;;;;4957840;29;20035;-81
2024/01/15 05:50:18;;;;;;;53.40;34.03;;;6.40;91.90;;;;;;4958144;29;20074;-82
2024/01/15 05:52:44;;;;;;;58.75;36.50;;;6.40;91.80;;;;;;4956329;28;20038;-82
2024/01/15 05:55:09;;;;;;;43.05;27.60;;;6.30;91.70;;;;;;4958003;29;20434;-82
2024/01/15 05:57:36;;;;;;;47.55;29.50;;;6.30;91.80;;;;;;4957886;29;20039;-82
2024/01/15 06:00:02;;;;;;;58.28;35.15;;;6.30;91.90;;;;;;4956829;29;20047;-83
2024/01/15 06:02:28;;;;;;;43.83;28.90;;;6.30;92.00;;;;;;4941522;29;20079;-82
2024/01/15 06:04:53;;;;;;;53.75;32.53;;;6.30;91.90;;;;;;4959106;28;20023;-81
2024/01/15 06:07:19;;;;;;;43.95;28.23;;;6.30;91.90;;;;;;4958856;29;20031;-82
2024/01/15 06:09:45;;;;;;;39.08;25.50;;;6.30;91.90;;;;;;4959035;29;20031;-82
2024/01/15 06:12:10;;;;;;;52.38;32.22;;;6.30;91.90;;;;;;4958808;29;20061;-81
2024/01/15 06:14:36;;;;;;;47.83;30.58;;;6.30;91.90;;;;;;4958694;29;20454;-80
2024/01/15 06:17:02;;;;;;;66.07;39.75;;;6.30;91.90;;;;;;4939660;29;20493;-81
2024/01/15 06:19:28;;;;;;;40.47;26.88;;;6.30;92.00;;;;;;4958281;29;20027;-83
2024/01/15 06:21:54;;;;;;;37.90;24.35;;;6.30;91.90;;;;;;4957878;28;20038;-83
2024/01/15 06:24:20;;;;;;;44.45;29.33;;;6.20;92.20;;;;;;4959232;29;20027;-83
2024/01/15 06:26:47;;;;;;;45.28;29.13;;;6.30;92.00;;;;;;4958670;29;20027;-83
2024/01/15 06:29:12;;;;;;;48.08;31.02;;;6.30;91.90;;;;;;4959160;29;20031;-83
2024/01/15 06:31:38;;;;;;;44.03;28.70;;;6.30;91.90;;;;;;4939895;29;20480;-84
2024/01/15 06:34:04;;;;;;;44.95;29.55;;;6.30;91.70;;;;;;4958296;29;20110;-82
2024/01/15 06:36:29;;;;;;;42.25;27.60;;;6.30;91.70;;;;;;4953620;28;20042;-82
2024/01/15 06:38:55;;;;;;;51.40;30.23;;;6.30;91.70;;;;;;4956843;29;20042;-82
2024/01/15 06:41:21;;;;;;;45.70;28.30;;;6.30;91.70;;;;;;4956162;29;20035;-81
2024/01/15 06:43:48;;;;;;;43.13;27.70;;;6.30;91.70;;;;;;4939090;29;20035;-82
2024/01/15 06:46:20;;;;;;;46.55;30.65;;;6.30;91.70;;;;;;4955068;29;20428;-82
2024/01/15 06:48:46;;;;;;;39.95;26.02;;;6.30;91.70;;;;;;4947925;29;20106;-81
2024/01/15 06:51:11;;;;;;;42.72;27.98;;;6.30;91.70;;;;;;4955485;29;20113;-81
2024/01/15 06:53:37;;;;;;;45.90;29.52;;;6.30;91.70;;;;;;4958163;29;20035;-83
2024/01/15 06:56:03;;;;;;;34.97;23.17;;;6.30;91.60;;;;;;4957374;29;20055;-81
2024/01/15 06:58:31;;;;;;;45.65;29.52;;;6.30;91.60;;;;;;4958668;29;20039;-82
2024/01/15 07:00:57;;;;;;;36.53;22.95;;;6.30;91.60;;;;;;4958721;29;20043;-81
2024/01/15 07:03:23;;;;;;;43.55;27.50;;;6.30;91.60;;;;;;4954837;29;20027;-81
2024/01/15 07:05:49;;;;;;;40.35;25.42;;;6.30;93.10;;;;;;4957041;29;20049;-87
2024/01/15 07:08:15;;;;;;;32.75;20.23;;;6.50;92.30;;;;;;4951628;29;20027;-82
2024/01/15 07:10:41;;;;;;;40.38;26.05;;;6.50;91.80;;;;;;4956506;29;20038;-82
2024/01/15 07:13:06;;;;;;;42.95;27.70;;;6.50;91.70;;;;;;4957505;29;20113;-81
2024/01/15 07:15:32;;;;;;;42.83;27.35;;;6.50;91.60;;;;;;4956028;29;20054;-82
2024/01/15 07:17:58;;;;;;;40.10;26.25;;;6.50;91.50;;;;;;4958334;29;20023;-86
2024/01/15 07:20:23;;;;;;;59.58;36.45;;;6.50;91.60;;;;;;4955665;29;20126;-82
2024/01/15 07:22:49;;;;;;;41.47;27.67;;;6.40;91.50;;;;;;4950462;29;20024;-85
2024/01/15 07:25:16;;;;;;;48.20;29.75;;;6.40;91.50;;;;;;4940626;29;20032;-82
2024/01/15 07:27:44;;;;;;;43.10;28.10;;;6.40;91.60;;;;;;4939621;29;20035;-85
2024/01/15 07:30:13;;;;;;;46.40;29.10;;;6.40;91.70;;;;;;4949893;29;20047;-85
2024/01/15 07:32:40;;;;;;;50.07;32.80;;;6.40;91.70;;;;;;4951980;29;20039;-85
2024/01/15 07:35:06;;;;;;;44.05;26.98;;;6.40;91.40;;;;;;4954239;29;20349;-82
2024/01/15 07:37:32;;;;;;;43.83;26.77;;;6.50;91.50;;;;;;4951972;29;20067;-81
2024/01/15 07:39:58;;;;;;;70.13;40.92;;;6.40;91.50;;;;;;4947990;29;20106;-82
2024/01/15 07:42:23;;;;;;;55.90;32.90;;;6.40;91.40;;;;;;4955068;29;20074;-82
2024/01/15 07:44:51;;;;;;;47.50;30.23;;;6.20;91.60;;;;;;4957092;29;20024;-82
2024/01/15 07:47:17;;;;;;;87.25;40.17;;;6.20;91.60;;;;;;4955662;29;20035;-81
2024/01/15 07:49:43;;;;;;;53.67;35.15;;;6.30;91.60;;;;;;4954458;29;20027;-83
2024/01/15 07:52:11;;;;;;;44.58;28.48;;;6.30;91.50;;;;;;4954659;29;20023;-83
2024/01/15 07:54:36;;;;;;;46.60;28.95;;;6.30;91.60;;;;;;4935997;29;20413;-84
2024/01/15 07:57:03;;;;;;;41.83;27.23;;;6.40;91.60;;;;;;4946087;29;20035;-84
2024/01/15 07:59:29;;;;;;;47.33;30.08;;;6.40;91.50;;;;;;4932885;29;20048;-84
2024/01/15 08:01:55;;;;;;;43.92;28.13;;;6.50;91.60;;;;;;4939003;29;20471;-84
2024/01/15 08:04:21;;;;;;;59.38;36.53;;;6.60;91.40;;;;;;4933621;29;20047;-85
2024/01/15 08:06:47;;;;;;;52.83;34.08;;;6.60;90.90;;;;;;4954753;29;20031;-86
2024/01/15 08:09:13;;;;;;;57.25;36.67;;;6.40;90.60;;;;;;4954171;29;20154;-86
2024/01/15 08:11:49;;;;;;;36.38;23.15;;;6.30;90.80;;;;;;4948786;29;20075;-86
2024/01/15 08:14:15;;;;;;;40.10;25.55;;;6.40;91.00;;;;;;4924790;29;20035;-87
2024/01/15 08:16:40;;;;;;;52.70;34.05;;;6.40;91.10;;;;;;4972822;28;20023;-86
2024/01/15 08:19:06;;;;;;;48.40;28.50;;;6.50;90.90;;;;;;4958172;29;20090;-87
2024/01/15 08:21:32;;;;;;;52.22;33.10;;;6.40;90.90;;;;;;4952332;28;20039;-88
2024/01/15 08:24:00;;;;;;;33.90;21.90;;;6.40;91.00;;;;;;4937444;29;20027;-82
2024/01/15 08:26:25;;;;;;;32.95;21.45;;;6.30;90.90;;;;;;4956319;29;20023;-81
2024/01/15 08:28:51;;;;;;;35.55;23.33;;;6.40;91.00;;;;;;4956658;29;20058;-81
2024/01/15 08:31:17;;;;;;;34.28;23.00;;;6.40;91.00;;;;;;4957090;29;20095;-81
2024/01/15 08:33:43;;;;;;;35.85;22.30;;;6.50;91.00;;;;;;4970468;28;20481;-81
2024/01/15 08:36:09;;;;;;;39.17;24.85;;;6.50;91.00;;;;;;4962437;28;20034;-81
2024/01/15 08:38:35;;;;;;;39.92;26.15;;;6.60;90.90;;;;;;4956607;28;20042;-82
2024/01/15 08:41:01;;;;;;;35.08;20.92;;;6.60;90.90;;;;;;4958310;28;20031;-81
2024/01/15 08:43:27;;;;;;;49.75;31.45;;;6.60;90.80;;;;;;4964954;28;20045;-81
2024/01/15 08:45:53;;;;;;;45.53;27.92;;;6.60;90.60;;;;;;4940300;28;20039;-82
2024/01/15 08:48:19;;;;;;;35.63;24.35;;;6.70;90.60;;;;;;4956035;28;20035;-82
2024/01/15 08:50:47;;;;;;;43.90;25.95;;;6.70;90.70;;;;;;4956507;28;20034;-80
2024/01/15 08:53:13;;;;;;;38.35;22.25;;;6.70;90.70;;;;;;4955522;29;20082;-81
2024/01/15 08:55:39;;;;;;;31.00;20.55;;;6.80;90.70;;;;;;4938639;29;20062;-82
2024/01/15 08:58:06;;;;;;;34.55;21.35;;;6.80;90.50;;;;;;4956258;29;20035;-81
2024/01/15 09:00:31;;;;;;;32.17;20.90;;;6.80;90.60;;;;;;4957953;28;20039;-82
2024/01/15 09:02:57;;;;;;;30.33;20.00;;;6.90;90.60;;;;;;4951806;28;20088;-82
2024/01/15 09:05:23;;;;;;;35.30;22.67;;;6.90;90.50;;;;;;4942884;29;20504;-81
2024/01/15 09:07:51;;;;;;;36.85;24.02;;;6.90;90.20;;;;;;4958613;28;20024;-81
2024/01/15 09:10:17;;;;;;;38.50;23.55;;;7.00;90.30;;;;;;4969375;28;20046;-81
2024/01/15 09:12:42;;;;;;;33.92;20.92;;;6.90;90.10;;;;;;4958618;28;20035;-81
2024/01/15 09:15:08;;;;;;;28.40;18.30;;;7.00;90.30;;;;;;4956435;29;20043;-81
2024/01/15 09:17:34;;;;;;;38.75;25.30;;;7.00;90.10;;;;;;4954260;29;20476;-82
2024/01/15 09:20:00;;;;;;;29.55;20.15;;;7.00;89.80;;;;;;4955872;29;20377;-82
2024/01/15 09:22:26;;;;;;;37.78;24.23;;;7.00;90.10;;;;;;4948411;28;20392;-82
2024/01/15 09:24:52;;;;;;;32.38;20.00;;;7.00;89.90;;;;;;4955809;29;20035;-81
2024/01/15 09:27:18;;;;;;;53.67;31.42;;;7.00;90.00;;;;;;4956496;29;20537;-83
2024/01/15 09:29:45;;;;;;;31.02;21.00;;;6.90;89.70;;;;;;4955987;29;20031;-83
2024/01/15 09:32:12;;;;;;;40.63;24.98;;;7.00;90.10;;;;;;4956037;29;20020;-83
2024/01/15 09:34:38;;;;;;;35.90;22.42;;;7.00;90.00;;;;;;4955803;28;20027;-83
2024/01/15 09:37:04;;;;;;;39.25;24.92;;;7.10;90.20;;;;;;4968720;28;20238;-82
2024/01/15 09:39:30;;;;;;;31.17;19.25;;;7.10;90.00;;;;;;4956135;28;20148;-83
2024/01/15 09:41:57;;;;;;;28.50;19.23;;;7.20;90.10;;;;;;4953378;28;20102;-82
2024/01/15 09:44:23;;;;;;;38.85;24.50;;;7.20;90.10;;;;;;4965292;28;20042;-81
2024/01/15 09:46:52;;;;;;;30.88;19.88;;;7.20;90.00;;;;;;4963846;28;20030;-82
2024/01/15 09:49:18;;;;;;;36.28;22.25;;;7.20;90.10;;;;;;4940927;28;20027;-81
2024/01/15 09:51:44;;;;;;;34.70;21.73;;;7.30;90.20;;;;;;4946239;28;20055;-82
2024/01/15 09:54:13;;;;;;;36.95;21.67;;;7.40;90.20;;;;;;4946902;28;20063;-82
2024/01/15 09:56:39;;;;;;;37.33;23.65;;;7.50;90.20;;;;;;4956502;29;20035;-82
2024/01/15 09:59:06;;;;;;;31.02;21.27;;;7.50;90.10;;;;;;4957042;29;20055;-82
2024/01/15 10:01:34;;;;;;;45.25;24.85;;;7.60;89.80;;;;;;4951928;28;20470;-83
2024/01/15 10:03:59;;;;;;;34.50;21.95;;;7.60;90.00;;;;;;4967823;28;20032;-82
2024/01/15 10:06:30;;;;;;;41.72;25.42;;;7.70;89.90;;;;;;4969777;28;20039;-82
2024/01/15 10:09:00;;;;;;;32.40;22.38;;;7.80;90.00;;;;;;4948549;29;20079;-82
2024/01/15 10:11:26;;;;;;;;;;;7.80;89.20;;;;;;4958131;29;20031;-82
2024/01/15 10:13:53;;;;;;;33.10;21.00;;;7.80;89.30;;;;;;4957654;29;19916;-82
2024/01/15 10:16:22;;;;;;;38.55;23.63;;;7.80;89.40;;;;;;4959532;29;20578;-82
2024/01/15 10:18:48;;;;;;;41.65;24.88;;;7.90;89.70;;;;;;4954081;29;20114;-82
2024/01/15 10:21:15;;;;;;;37.20;24.77;;;7.90;89.30;;;;;;4930585;29;20389;-82
2024/01/15 10:23:41;;;;;;;33.58;22.67;;;7.90;89.40;;;;;;4940184;29;20449;-82
2024/01/15 10:26:08;;;;;;;39.35;25.55;;;7.90;89.30;;;;;;4958094;29;20043;-82
2024/01/15 10:28:33;;;;;;;33.25;21.63;;;8.00;89.20;;;;;;4958240;29;20023;-82
2024/01/15 10:31:00;;;;;;;35.60;23.55;;;8.00;89.00;;;;;;4958364;29;20366;-81
2024/01/15 10:33:26;;;;;;;45.70;27.55;;;8.10;89.00;;;;;;4939012;29;20465;-82
2024/01/15 10:36:00;;;;;;;46.17;27.92;;;8.10;88.00;;;;;;4956742;29;20035;-82
2024/01/15 10:38:27;;;;;;;45.05;28.08;;;8.20;88.50;;;;;;4958689;29;20028;-81
2024/01/15 10:40:54;;;;;;;39.83;25.55;;;8.10;88.30;;;;;;4957498;28;20054;-81
2024/01/15 10:43:20;;;;;;;43.17;23.95;;;8.10;88.30;;;;;;4956500;29;20515;-81
2024/01/15 10:45:47;;;;;;;39.50;24.63;;;8.10;88.50;;;;;;4956842;29;20054;-82
2024/01/15 10:48:13;;;;;;;40.95;25.83;;;8.20;88.80;;;;;;4952118;29;20036;-81
2024/01/15 10:50:39;;;;;;;52.20;32.58;;;8.30;89.40;;;;;;4958400;29;20419;-82
2024/01/15 10:53:05;;;;;;;47.80;30.33;;;8.30;89.40;;;;;;4967015;28;20055;-82
2024/01/15 10:55:33;;;;;;;46.42;30.10;;;8.30;87.70;;;;;;4958391;28;20031;-82
2024/01/15 10:57:59;;;;;;;58.33;36.78;;;8.30;88.10;;;;;;4966170;28;20049;-82
2024/01/15 11:00:26;;;;;;;47.97;30.88;;;8.30;88.10;;;;;;4972975;28;20054;-83
2024/01/15 11:02:55;;;;;;;66.43;39.28;;;8.40;88.30;;;;;;4957766;28;20043;-82
2024/01/15 11:05:22;;;;;;;39.93;26.67;;;8.40;88.10;;;;;;4951349;29;20086;-81
2024/01/15 11:07:49;;;;;;;52.92;31.67;;;8.40;88.60;;;;;;4965035;28;20520;-82
2024/01/15 11:10:49;;;;;;;45.83;28.77;;;8.30;88.00;;;;;;4957122;28;20086;-81
2024/01/15 11:13:22;;;;;;;69.85;42.33;;;8.50;88.50;;;;;;4954070;28;20525;-81
2024/01/15 11:15:56;;;;;;;72.47;43.30;;;8.30;87.90;;;;;;4951309;28;20086;-81
2024/01/15 11:18:22;;;;;;;48.53;29.60;;;8.30;88.70;;;;;;4958087;28;20121;-81
2024/01/15 11:21:13;;;;;;;65.05;40.00;;;8.30;88.80;;;;;;4953410;28;20030;-81
2024/01/15 11:23:50;;;;;;;40.20;26.20;;;8.10;89.00;;;;;;4951771;28;20028;-81
2024/01/15 11:26:30;;;;;;;50.05;31.20;;;8.20;89.20;;;;;;4943385;28;20039;-81
2024/01/15 11:28:58;;;;;;;40.53;26.27;;;8.40;88.90;;;;;;4963116;28;20035;-89
2024/01/15 11:31:50;;;;;;;37.05;23.88;;;8.50;88.70;;;;;;4958092;29;20461;-89
2024/01/15 11:34:16;;;;;;;37.15;24.55;;;8.60;88.80;;;;;;4951453;29;20034;-82
2024/01/15 11:36:51;;;;;;;43.20;26.05;;;8.70;88.80;;;;;;4950535;28;20082;-82
2024/01/15 11:39:27;;;;;;;55.75;35.60;;;8.90;88.90;;;;;;4939969;29;20405;-82
2024/01/15 11:41:55;;;;;;;41.50;26.90;;;9.10;88.20;;;;;;4955346;29;20497;-82
2024/01/15 11:44:21;;;;;;;43.92;27.25;;;9.40;88.40;;;;;;4957559;29;20382;-82
2024/01/15 11:46:58;;;;;;;47.80;30.95;;;9.70;88.50;;;;;;4954927;28;20035;-81
2024/01/15 11:49:58;;;;;;;60.45;39.95;;;10.10;84.60;;;;;;4939382;29;20063;-82
2024/01/15 11:52:25;;;;;;;41.40;26.10;;;10.00;83.90;;;;;;4956691;29;20019;-82
2024/01/15 11:55:16;;;;;;;47.58;30.05;;;10.20;84.70;;;;;;4956547;28;20039;-81
2024/01/15 11:57:46;;;;;;;50.80;33.15;;;10.20;83.90;;;;;;4956984;28;20054;-82
2024/01/15 12:00:13;;;;;;;;;;;10.00;83.20;;;;;;5018555;23;20074;-82
2024/01/15 12:02:41;;;;;;;38.22;25.23;;;10.00;83.80;;;;;;5024024;28;19909;-81
2024/01/15 12:05:12;;;;;;;38.10;25.27;;;10.00;84.40;;;;;;5032162;28;20382;-81
2024/01/15 12:07:42;;;;;;;40.13;24.75;;;10.00;84.60;;;;;;5016942;28;20018;-83
2024/01/15 12:10:15;;;;;;;46.03;28.63;;;10.00;83.70;;;;;;5023100;28;20037;-82
2024/01/15 12:12:50;;;;;;;55.22;34.33;;;10.10;83.90;;;;;;5028594;28;20092;-82
2024/01/15 12:15:15;;;;;;;62.17;39.63;;;10.00;82.80;;;;;;5024683;28;20037;-82
2024/01/15 12:17:41;;;;;;;40.35;25.58;;;9.80;82.70;;;;;;5022052;28;20033;-83
2024/01/15 12:20:07;;;;;;;52.45;35.03;;;9.70;83.70;;;;;;5034253;28;20079;-83
2024/01/15 12:22:33;;;;;;;38.13;26.23;;;9.70;83.40;;;;;;5022676;28;20038;-83
2024/01/15 12:24:59;;;;;;;35.97;22.75;;;9.80;83.30;;;;;;5008683;28;20415;-82
2024/01/15 12:27:25;;;;;;;52.70;35.45;;;10.30;84.30;;;;;;5029192;28;20091;-83
2024/01/15 12:29:53;;;;;;;37.30;24.67;;;11.20;81.20;;;;;;5029675;28;20021;-88
2024/01/15 12:32:20;;;;;;;39.60;27.35;;;11.60;80.70;;;;;;5022813;28;20045;-88
2024/01/15 12:34:46;;;;;;;42.55;27.10;;;11.90;80.40;;;;;;5008761;28;20064;-89
2024/01/15 12:37:12;;;;;;;52.70;37.20;;;12.10;79.50;;;;;;5025770;28;20034;-88